Time,TemperatureF,DewpointF,PressureIn,WindDirection,WindDirectionDegrees,WindSpeedMPH,WindSpeedGustMPH,Humidity,HourlyPrecipIn,Conditions,Clouds,dailyrainin,SoftwareType,DateUTC
2013-05-25 00:02:00,46.0,41.0,-100.00,WSW,239,6.0,8.0,81,0.00,,,-99.99,,2013-05-25 08:02:00,
2013-05-25 00:11:00,46.0,41.0,-100.00,WSW,239,6.0,8.0,81,0.00,,,-99.99,,2013-05-25 08:11:00,
2013-05-25 00:22:00,46.0,41.0,-100.00,WSW,239,6.0,8.0,81,0.00,,,-99.99,,2013-05-25 08:22:00,
2013-05-25 00:30:00,46.0,41.0,-100.00,NW,306,3.0,4.0,84,0.00,,,-99.99,,2013-05-25 08:30:00,
2013-05-25 00:52:00,46.0,41.0,-100.00,NW,306,3.0,4.0,84,0.00,,,-99.99,,2013-05-25 08:52:00,
2013-05-25 01:01:00,46.0,41.0,-100.00,NW,306,3.0,4.0,84,0.00,,,-99.99,,2013-05-25 09:01:00,
2013-05-25 01:11:00,46.0,41.0,-100.00,NW,306,3.0,4.0,84,0.00,,,-99.99,,2013-05-25 09:11:00,
2013-05-25 01:21:00,46.0,41.0,-100.00,NW,306,3.0,4.0,84,0.00,,,-99.99,,2013-05-25 09:21:00,
2013-05-25 01:30:00,45.0,41.0,-100.00,East,81,1.0,2.0,86,0.00,,,-99.99,,2013-05-25 09:30:00,
2013-05-25 01:53:00,45.0,41.0,-100.00,East,81,1.0,2.0,86,0.00,,,-99.99,,2013-05-25 09:53:00,
2013-05-25 02:02:00,45.0,41.0,-100.00,East,81,1.0,2.0,86,0.00,,,-99.99,,2013-05-25 10:02:00,
2013-05-25 02:12:00,45.0,41.0,-100.00,East,81,1.0,2.0,86,0.00,,,-99.99,,2013-05-25 10:12:00,
2013-05-25 02:22:00,45.0,41.0,-100.00,East,81,1.0,2.0,86,0.00,,,-99.99,,2013-05-25 10:22:00,
2013-05-25 02:30:00,44.0,41.0,-100.00,ENE,67,4.0,5.0,90,0.00,,,-99.99,,2013-05-25 10:30:00,
2013-05-25 02:52:00,44.0,41.0,-100.00,ENE,67,4.0,5.0,90,0.00,,,-99.99,,2013-05-25 10:52:00,
2013-05-25 03:02:00,44.0,41.0,-100.00,ENE,67,4.0,5.0,90,0.00,,,-99.99,,2013-05-25 11:02:00,
2013-05-25 03:12:00,44.0,41.0,-100.00,ENE,67,4.0,5.0,90,0.00,,,-99.99,,2013-05-25 11:12:00,
2013-05-25 03:21:00,44.0,41.0,-100.00,ENE,67,4.0,5.0,90,0.00,,,-99.99,,2013-05-25 11:21:00,
2013-05-25 03:30:00,44.0,41.0,-100.00,East,80,5.0,5.0,90,0.00,,,-99.99,,2013-05-25 11:30:00,
2013-05-25 03:52:00,44.0,41.0,-100.00,East,80,5.0,5.0,90,0.00,,,-99.99,,2013-05-25 11:52:00,
2013-05-25 04:01:00,44.0,41.0,-100.00,East,80,5.0,5.0,90,0.00,,,-99.99,,2013-05-25 12:01:00,
2013-05-25 04:12:00,44.0,41.0,-100.00,East,80,5.0,5.0,90,0.00,,,-99.99,,2013-05-25 12:12:00,
2013-05-25 04:21:00,44.0,41.0,-100.00,East,80,5.0,5.0,90,0.00,,,-99.99,,2013-05-25 12:21:00,
2013-05-25 04:30:00,43.0,40.0,-100.00,East,79,4.0,5.0,91,0.00,,,-99.99,,2013-05-25 12:30:00,
2013-05-25 04:52:00,43.0,40.0,-100.00,East,79,4.0,5.0,91,0.00,,,-99.99,,2013-05-25 12:52:00,
2013-05-25 05:02:00,43.0,40.0,-100.00,East,79,4.0,5.0,91,0.00,,,-99.99,,2013-05-25 13:02:00,
2013-05-25 05:11:00,43.0,40.0,-100.00,East,79,4.0,5.0,91,0.00,,,-99.99,,2013-05-25 13:11:00,
2013-05-25 05:21:00,43.0,40.0,-100.00,East,79,4.0,5.0,91,0.00,,,-99.99,,2013-05-25 13:21:00,
2013-05-25 05:30:00,43.0,41.0,-100.00,East,79,4.0,5.0,93,0.00,,,-99.99,,2013-05-25 13:30:00,
2013-05-25 05:52:00,43.0,41.0,-100.00,East,79,4.0,5.0,93,0.00,,,-99.99,,2013-05-25 13:52:00,
2013-05-25 06:02:00,43.0,41.0,-100.00,East,79,4.0,5.0,93,0.00,,,-99.99,,2013-05-25 14:02:00,
2013-05-25 06:11:00,43.0,41.0,-100.00,East,79,4.0,5.0,93,0.00,,,-99.99,,2013-05-25 14:11:00,
2013-05-25 06:22:00,43.0,41.0,-100.00,East,79,4.0,5.0,93,0.00,,,-99.99,,2013-05-25 14:22:00,
2013-05-25 06:30:00,43.0,40.0,-100.00,ESE,121,3.0,4.0,89,0.00,,,-99.99,,2013-05-25 14:30:00,
2013-05-25 06:52:00,43.0,40.0,-100.00,ESE,121,3.0,4.0,89,0.00,,,-99.99,,2013-05-25 14:52:00,
2013-05-25 07:01:00,43.0,40.0,-100.00,ESE,121,3.0,4.0,89,0.00,,,-99.99,,2013-05-25 15:01:00,
2013-05-25 07:11:00,43.0,40.0,-100.00,ESE,121,3.0,4.0,89,0.00,,,-99.99,,2013-05-25 15:11:00,
2013-05-25 07:22:00,43.0,40.0,-100.00,ESE,121,3.0,4.0,89,0.00,,,-99.99,,2013-05-25 15:22:00,
2013-05-25 07:30:00,43.0,39.0,-100.00,East,100,4.0,5.0,85,0.00,,,-99.99,,2013-05-25 15:30:00,
2013-05-25 07:53:00,43.0,39.0,-100.00,East,100,4.0,5.0,85,0.00,,,-99.99,,2013-05-25 15:53:00,
2013-05-25 08:03:00,43.0,39.0,-100.00,East,100,4.0,5.0,85,0.00,,,-99.99,,2013-05-25 16:03:00,
2013-05-25 08:12:00,43.0,39.0,-100.00,East,100,4.0,5.0,85,0.00,,,-99.99,,2013-05-25 16:12:00,
2013-05-25 08:22:00,43.0,39.0,-100.00,East,100,4.0,5.0,85,0.00,,,-99.99,,2013-05-25 16:22:00,
2013-05-25 08:30:00,45.0,41.0,-100.00,NNE,22,4.0,5.0,84,0.00,,,-99.99,,2013-05-25 16:30:00,
2013-05-25 08:52:00,45.0,41.0,-100.00,NNE,22,4.0,5.0,84,0.00,,,-99.99,,2013-05-25 16:52:00,
2013-05-25 09:02:00,45.0,41.0,-100.00,NNE,22,4.0,5.0,84,0.00,,,-99.99,,2013-05-25 17:02:00,
2013-05-25 09:11:00,45.0,41.0,-100.00,NNE,22,4.0,5.0,84,0.00,,,-99.99,,2013-05-25 17:11:00,
2013-05-25 09:22:00,45.0,41.0,-100.00,NNE,22,4.0,5.0,84,0.00,,,-99.99,,2013-05-25 17:22:00,
2013-05-25 09:30:00,46.0,40.0,-100.00,NE,49,3.0,4.0,80,0.00,,,-99.99,,2013-05-25 17:30:00,
2013-05-25 09:52:00,46.0,40.0,-100.00,NE,49,3.0,4.0,80,0.00,,,-99.99,,2013-05-25 17:52:00,
2013-05-25 10:01:00,46.0,40.0,-100.00,NE,49,3.0,4.0,80,0.00,,,-99.99,,2013-05-25 18:01:00,
2013-05-25 10:11:00,46.0,40.0,-100.00,NE,49,3.0,4.0,80,0.00,,,-99.99,,2013-05-25 18:11:00,
2013-05-25 10:21:00,46.0,40.0,-100.00,NE,49,3.0,4.0,80,0.00,,,-99.99,,2013-05-25 18:21:00,
2013-05-25 10:30:00,50.0,41.0,-100.00,ENE,62,2.0,3.0,71,0.00,,,-99.99,,2013-05-25 18:30:00,
2013-05-25 10:52:00,50.0,41.0,-100.00,ENE,62,2.0,3.0,71,0.00,,,-99.99,,2013-05-25 18:52:00,
2013-05-25 11:01:00,50.0,41.0,-100.00,ENE,62,2.0,3.0,71,0.00,,,-99.99,,2013-05-25 19:01:00,
2013-05-25 11:11:00,50.0,41.0,-100.00,ENE,62,2.0,3.0,71,0.00,,,-99.99,,2013-05-25 19:11:00,
2013-05-25 11:21:00,50.0,41.0,-100.00,ENE,62,2.0,3.0,71,0.00,,,-99.99,,2013-05-25 19:21:00,
2013-05-25 11:30:00,51.0,40.0,-100.00,NW,308,5.0,8.0,66,0.00,,,-99.99,,2013-05-25 19:30:00,
2013-05-25 11:52:00,51.0,40.0,-100.00,NW,308,5.0,8.0,66,0.00,,,-99.99,,2013-05-25 19:52:00,
2013-05-25 12:02:00,51.0,40.0,-100.00,NW,308,5.0,8.0,66,0.00,,,-99.99,,2013-05-25 20:02:00,
2013-05-25 12:11:00,51.0,40.0,-100.00,NW,308,5.0,8.0,66,0.00,,,-99.99,,2013-05-25 20:11:00,
2013-05-25 12:21:00,51.0,40.0,-100.00,NW,308,5.0,8.0,66,0.00,,,-99.99,,2013-05-25 20:21:00,
2013-05-25 12:30:00,48.0,41.0,-100.00,West,260,11.0,16.0,75,0.00,,,-99.99,,2013-05-25 20:30:00,
2013-05-25 12:52:00,48.0,41.0,-100.00,West,260,11.0,16.0,75,0.00,,,-99.99,,2013-05-25 20:52:00,
2013-05-25 13:02:00,48.0,41.0,-100.00,West,260,11.0,16.0,75,0.00,,,-99.99,,2013-05-25 21:02:00,
2013-05-25 13:11:00,48.0,41.0,-100.00,West,260,11.0,16.0,75,0.00,,,-99.99,,2013-05-25 21:11:00,
2013-05-25 13:21:00,48.0,41.0,-100.00,West,260,11.0,16.0,75,0.00,,,-99.99,,2013-05-25 21:21:00,
2013-05-25 13:30:00,47.0,41.0,-100.00,West,262,12.0,17.0,79,0.00,,,-99.99,,2013-05-25 21:30:00,
2013-05-25 13:53:00,47.0,41.0,-100.00,West,262,12.0,17.0,79,0.00,,,-99.99,,2013-05-25 21:53:00,
2013-05-25 14:03:00,47.0,41.0,-100.00,West,262,12.0,17.0,79,0.00,,,-99.99,,2013-05-25 22:03:00,
2013-05-25 14:30:00,47.0,41.0,-100.00,West,264,12.0,19.0,82,0.00,,,-99.99,,2013-05-25 22:30:00,
2013-05-25 14:52:00,47.0,41.0,-100.00,West,264,12.0,19.0,82,0.00,,,-99.99,,2013-05-25 22:52:00,
2013-05-25 15:02:00,47.0,41.0,-100.00,West,264,12.0,19.0,82,0.00,,,-99.99,,2013-05-25 23:02:00,
2013-05-25 15:12:00,47.0,41.0,-100.00,West,264,12.0,19.0,82,0.00,,,-99.99,,2013-05-25 23:12:00,
2013-05-25 15:21:00,47.0,41.0,-100.00,West,264,12.0,19.0,82,0.00,,,-99.99,,2013-05-25 23:21:00,
2013-05-25 15:30:00,48.0,41.0,-100.00,West,280,14.0,19.0,77,0.00,,,-99.99,,2013-05-25 23:30:00,
2013-05-25 15:52:00,48.0,41.0,-100.00,West,280,14.0,19.0,77,0.00,,,-99.99,,2013-05-25 23:52:00,
2013-05-25 16:01:00,48.0,41.0,-100.00,West,280,14.0,19.0,77,0.00,,,-99.99,,2013-05-26 00:01:00,
2013-05-25 16:11:00,48.0,41.0,-100.00,West,280,14.0,19.0,77,0.00,,,-99.99,,2013-05-26 00:11:00,
2013-05-25 16:21:00,48.0,41.0,-100.00,West,280,14.0,19.0,77,0.00,,,-99.99,,2013-05-26 00:21:00,
2013-05-25 16:30:00,48.0,41.0,-100.00,WNW,282,14.0,19.0,75,0.00,,,-99.99,,2013-05-26 00:30:00,
2013-05-25 16:52:00,48.0,41.0,-100.00,WNW,282,14.0,19.0,75,0.00,,,-99.99,,2013-05-26 00:52:00,
2013-05-25 17:01:00,48.0,41.0,-100.00,WNW,282,14.0,19.0,75,0.00,,,-99.99,,2013-05-26 01:01:00,
2013-05-25 17:11:00,48.0,41.0,-100.00,WNW,282,14.0,19.0,75,0.00,,,-99.99,,2013-05-26 01:11:00,
2013-05-25 17:21:00,48.0,41.0,-100.00,WNW,282,14.0,19.0,75,0.00,,,-99.99,,2013-05-26 01:21:00,
2013-05-25 17:30:00,48.0,41.0,-100.00,West,278,13.0,18.0,76,0.00,,,-99.99,,2013-05-26 01:30:00,
2013-05-25 17:52:00,48.0,41.0,-100.00,West,278,13.0,18.0,76,0.00,,,-99.99,,2013-05-26 01:52:00,
2013-05-25 18:02:00,48.0,41.0,-100.00,West,278,13.0,18.0,76,0.00,,,-99.99,,2013-05-26 02:02:00,
2013-05-25 18:11:00,48.0,41.0,-100.00,West,278,13.0,18.0,76,0.00,,,-99.99,,2013-05-26 02:11:00,
2013-05-25 18:21:00,48.0,41.0,-100.00,West,278,13.0,18.0,76,0.00,,,-99.99,,2013-05-26 02:21:00,
2013-05-25 18:30:00,47.0,41.0,-100.00,WSW,247,9.0,13.0,80,0.00,,,-99.99,,2013-05-26 02:30:00,
2013-05-25 18:52:00,47.0,41.0,-100.00,WSW,247,9.0,13.0,80,0.00,,,-99.99,,2013-05-26 02:52:00,
2013-05-25 19:01:00,47.0,41.0,-100.00,WSW,247,9.0,13.0,80,0.00,,,-99.99,,2013-05-26 03:01:00,
2013-05-25 19:11:00,47.0,41.0,-100.00,WSW,247,9.0,13.0,80,0.00,,,-99.99,,2013-05-26 03:11:00,
2013-05-25 19:21:00,47.0,41.0,-100.00,WSW,247,9.0,13.0,80,0.00,,,-99.99,,2013-05-26 03:21:00,
2013-05-25 19:30:00,48.0,41.0,-100.00,West,278,11.0,14.0,74,0.00,,,-99.99,,2013-05-26 03:30:00,
2013-05-25 19:53:00,48.0,41.0,-100.00,West,278,11.0,14.0,74,0.00,,,-99.99,,2013-05-26 03:53:00,
2013-05-25 20:02:00,48.0,41.0,-100.00,West,278,11.0,14.0,74,0.00,,,-99.99,,2013-05-26 04:02:00,
2013-05-25 20:12:00,48.0,41.0,-100.00,West,278,11.0,14.0,74,0.00,,,-99.99,,2013-05-26 04:12:00,
2013-05-25 20:23:00,48.0,41.0,-100.00,West,278,11.0,14.0,74,0.00,,,-99.99,,2013-05-26 04:23:00,
2013-05-25 20:30:00,51.0,41.0,-100.00,West,261,6.0,9.0,70,0.00,,,-99.99,,2013-05-26 04:30:00,
2013-05-25 20:52:00,51.0,41.0,-100.00,West,261,6.0,9.0,70,0.00,,,-99.99,,2013-05-26 04:52:00,
2013-05-25 21:02:00,51.0,41.0,-100.00,West,261,6.0,9.0,70,0.00,,,-99.99,,2013-05-26 05:02:00,
2013-05-25 21:12:00,51.0,41.0,-100.00,West,261,6.0,9.0,70,0.00,,,-99.99,,2013-05-26 05:12:00,
2013-05-25 21:22:00,51.0,41.0,-100.00,West,261,6.0,9.0,70,0.00,,,-99.99,,2013-05-26 05:22:00,
2013-05-25 21:30:00,49.0,42.0,-100.00,West,267,6.0,9.0,74,0.00,,,-99.99,,2013-05-26 05:30:00,
2013-05-25 21:52:00,49.0,42.0,-100.00,West,267,6.0,9.0,74,0.00,,,-99.99,,2013-05-26 05:52:00,
2013-05-25 22:01:00,49.0,42.0,-100.00,West,267,6.0,9.0,74,0.00,,,-99.99,,2013-05-26 06:01:00,
2013-05-25 22:11:00,49.0,42.0,-100.00,West,267,6.0,9.0,74,0.00,,,-99.99,,2013-05-26 06:11:00,
2013-05-25 22:21:00,49.0,42.0,-100.00,West,267,6.0,9.0,74,0.00,,,-99.99,,2013-05-26 06:21:00,
2013-05-25 22:30:00,48.0,41.0,-100.00,SW,232,6.0,10.0,78,0.00,,,-99.99,,2013-05-26 06:30:00,
2013-05-25 22:52:00,48.0,41.0,-100.00,SW,232,6.0,10.0,78,0.00,,,-99.99,,2013-05-26 06:52:00,
2013-05-25 23:01:00,48.0,41.0,-100.00,SW,232,6.0,10.0,78,0.00,,,-99.99,,2013-05-26 07:01:00,
2013-05-25 23:11:00,48.0,41.0,-100.00,SW,232,6.0,10.0,78,0.00,,,-99.99,,2013-05-26 07:11:00,
2013-05-25 23:21:00,48.0,41.0,-100.00,SW,232,6.0,10.0,78,0.00,,,-99.99,,2013-05-26 07:21:00,
2013-05-25 23:30:00,46.0,41.0,-100.00,WSW,255,6.0,10.0,84,0.00,,,-99.99,,2013-05-26 07:30:00,
2013-05-25 23:52:00,46.0,41.0,-100.00,WSW,255,6.0,10.0,84,0.00,,,-99.99,,2013-05-26 07:52:00,